sensor_id;sensor_type;location;lat;lon;timestamp;P1;durP1;ratioP1;P2;durP2;ratioP2
77055;SDS011;67471;44.918;8.614;2023-12-07T00:00:32;27.10;;;16.33;;
77055;SDS011;67471;44.918;8.614;2023-12-07T00:03:36;28.25;;;16.88;;
77055;SDS011;67471;44.918;8.614;2023-12-07T00:06:39;27.08;;;16.90;;
77055;SDS011;67471;44.918;8.614;2023-12-07T00:09:43;26.83;;;16.88;;
77055;SDS011;67471;44.918;8.614;2023-12-07T00:12:47;28.88;;;16.38;;
77055;SDS011;67471;44.918;8.614;2023-12-07T00:15:51;33.40;;;17.20;;
77055;SDS011;67471;44.918;8.614;2023-12-07T00:18:55;26.42;;;16.48;;
77055;SDS011;67471;44.918;8.614;2023-12-07T00:21:58;28.58;;;15.70;;
77055;SDS011;67471;44.918;8.614;2023-12-07T00:25:02;27.40;;;15.88;;
77055;SDS011;67471;44.918;8.614;2023-12-07T00:28:06;28.35;;;16.23;;
77055;SDS011;67471;44.918;8.614;2023-12-07T00:31:10;27.80;;;15.20;;
77055;SDS011;67471;44.918;8.614;2023-12-07T00:34:14;26.95;;;16.02;;
77055;SDS011;67471;44.918;8.614;2023-12-07T00:37:18;25.65;;;16.00;;
77055;SDS011;67471;44.918;8.614;2023-12-07T00:40:22;29.38;;;16.90;;
77055;SDS011;67471;44.918;8.614;2023-12-07T00:43:26;29.67;;;17.25;;
77055;SDS011;67471;44.918;8.614;2023-12-07T00:46:30;32.75;;;18.55;;
77055;SDS011;67471;44.918;8.614;2023-12-07T00:49:37;28.33;;;16.38;;
77055;SDS011;67471;44.918;8.614;2023-12-07T00:52:42;26.73;;;16.35;;
77055;SDS011;67471;44.918;8.614;2023-12-07T00:55:46;30.40;;;16.92;;
77055;SDS011;67471;44.918;8.614;2023-12-07T00:58:50;29.75;;;18.00;;
77055;SDS011;67471;44.918;8.614;2023-12-07T01:01:54;31.30;;;18.00;;
77055;SDS011;67471;44.918;8.614;2023-12-07T01:04:58;30.17;;;17.67;;
77055;SDS011;67471;44.918;8.614;2023-12-07T01:08:01;33.08;;;18.63;;
77055;SDS011;67471;44.918;8.614;2023-12-07T01:11:05;33.17;;;17.92;;
77055;SDS011;67471;44.918;8.614;2023-12-07T01:14:09;28.92;;;16.85;;
77055;SDS011;67471;44.918;8.614;2023-12-07T01:17:14;30.92;;;17.58;;
77055;SDS011;67471;44.918;8.614;2023-12-07T01:20:18;27.98;;;17.30;;
77055;SDS011;67471;44.918;8.614;2023-12-07T01:23:21;29.35;;;15.73;;
77055;SDS011;67471;44.918;8.614;2023-12-07T01:26:25;32.40;;;17.15;;
77055;SDS011;67471;44.918;8.614;2023-12-07T01:29:29;26.30;;;16.00;;
77055;SDS011;67471;44.918;8.614;2023-12-07T01:32:33;25.95;;;15.02;;
77055;SDS011;67471;44.918;8.614;2023-12-07T01:35:37;24.42;;;14.60;;
77055;SDS011;67471;44.918;8.614;2023-12-07T01:38:41;32.58;;;16.35;;
77055;SDS011;67471;44.918;8.614;2023-12-07T01:41:46;21.67;;;13.63;;
77055;SDS011;67471;44.918;8.614;2023-12-07T01:44:50;21.25;;;14.23;;
77055;SDS011;67471;44.918;8.614;2023-12-07T01:47:54;21.95;;;13.23;;
77055;SDS011;67471;44.918;8.614;2023-12-07T01:51:00;21.88;;;12.65;;
77055;SDS011;67471;44.918;8.614;2023-12-07T01:54:04;22.08;;;12.60;;
77055;SDS011;67471;44.918;8.614;2023-12-07T01:57:08;22.15;;;13.50;;
77055;SDS011;67471;44.918;8.614;2023-12-07T02:00:12;25.13;;;12.88;;
77055;SDS011;67471;44.918;8.614;2023-12-07T02:03:17;23.08;;;12.90;;
77055;SDS011;67471;44.918;8.614;2023-12-07T02:06:21;22.33;;;13.73;;
77055;SDS011;67471;44.918;8.614;2023-12-07T02:09:24;24.33;;;14.77;;
77055;SDS011;67471;44.918;8.614;2023-12-07T02:12:28;25.45;;;13.23;;
77055;SDS011;67471;44.918;8.614;2023-12-07T02:15:33;24.10;;;14.35;;
77055;SDS011;67471;44.918;8.614;2023-12-07T02:18:50;25.45;;;15.13;;
77055;SDS011;67471;44.918;8.614;2023-12-07T02:22:02;27.55;;;15.23;;
77055;SDS011;67471;44.918;8.614;2023-12-07T02:25:14;25.80;;;15.77;;
77055;SDS011;67471;44.918;8.614;2023-12-07T02:28:20;25.13;;;16.42;;
77055;SDS011;67471;44.918;8.614;2023-12-07T02:31:24;23.85;;;15.35;;
77055;SDS011;67471;44.918;8.614;2023-12-07T02:34:27;28.27;;;16.20;;
77055;SDS011;67471;44.918;8.614;2023-12-07T02:37:33;26.92;;;15.32;;
77055;SDS011;67471;44.918;8.614;2023-12-07T02:40:40;24.30;;;15.32;;
77055;SDS011;67471;44.918;8.614;2023-12-07T02:43:48;30.15;;;16.45;;
77055;SDS011;67471;44.918;8.614;2023-12-07T02:46:52;26.20;;;16.45;;
77055;SDS011;67471;44.918;8.614;2023-12-07T02:49:55;34.40;;;17.13;;
77055;SDS011;67471;44.918;8.614;2023-12-07T02:52:59;30.25;;;16.15;;
77055;SDS011;67471;44.918;8.614;2023-12-07T02:56:21;27.48;;;15.45;;
77055;SDS011;67471;44.918;8.614;2023-12-07T02:59:25;28.90;;;15.38;;
77055;SDS011;67471;44.918;8.614;2023-12-07T03:02:29;27.63;;;16.42;;
77055;SDS011;67471;44.918;8.614;2023-12-07T03:05:32;32.78;;;16.77;;
77055;SDS011;67471;44.918;8.614;2023-12-07T03:08:36;31.13;;;15.10;;
77055;SDS011;67471;44.918;8.614;2023-12-07T03:11:40;30.55;;;16.60;;
77055;SDS011;67471;44.918;8.614;2023-12-07T03:14:43;29.60;;;16.10;;
77055;SDS011;67471;44.918;8.614;2023-12-07T03:17:48;29.17;;;16.98;;
77055;SDS011;67471;44.918;8.614;2023-12-07T03:20:52;29.77;;;16.33;;
77055;SDS011;67471;44.918;8.614;2023-12-07T03:23:56;29.50;;;15.85;;
77055;SDS011;67471;44.918;8.614;2023-12-07T03:27:00;28.27;;;15.23;;
77055;SDS011;67471;44.918;8.614;2023-12-07T03:30:04;28.55;;;15.77;;
77055;SDS011;67471;44.918;8.614;2023-12-07T03:33:08;30.33;;;16.42;;
77055;SDS011;67471;44.918;8.614;2023-12-07T03:36:12;29.48;;;16.52;;
77055;SDS011;67471;44.918;8.614;2023-12-07T03:39:16;28.52;;;16.73;;
77055;SDS011;67471;44.918;8.614;2023-12-07T03:42:25;31.05;;;17.50;;
77055;SDS011;67471;44.918;8.614;2023-12-07T03:45:29;28.98;;;16.52;;
77055;SDS011;67471;44.918;8.614;2023-12-07T03:48:33;26.65;;;15.70;;
77055;SDS011;67471;44.918;8.614;2023-12-07T03:51:37;28.50;;;16.50;;
77055;SDS011;67471;44.918;8.614;2023-12-07T03:54:41;24.83;;;14.55;;
77055;SDS011;67471;44.918;8.614;2023-12-07T03:57:45;29.17;;;16.25;;
77055;SDS011;67471;44.918;8.614;2023-12-07T04:00:49;29.35;;;16.35;;
77055;SDS011;67471;44.918;8.614;2023-12-07T04:03:53;26.63;;;16.10;;
77055;SDS011;67471;44.918;8.614;2023-12-07T04:06:58;30.92;;;16.35;;
77055;SDS011;67471;44.918;8.614;2023-12-07T04:10:03;30.80;;;17.10;;
77055;SDS011;67471;44.918;8.614;2023-12-07T04:13:09;29.05;;;18.58;;
77055;SDS011;67471;44.918;8.614;2023-12-07T04:16:13;31.92;;;16.67;;
77055;SDS011;67471;44.918;8.614;2023-12-07T04:19:16;27.05;;;15.05;;
77055;SDS011;67471;44.918;8.614;2023-12-07T04:22:20;29.63;;;15.80;;
77055;SDS011;67471;44.918;8.614;2023-12-07T04:25:24;34.75;;;17.23;;
77055;SDS011;67471;44.918;8.614;2023-12-07T04:28:28;26.00;;;15.57;;
77055;SDS011;67471;44.918;8.614;2023-12-07T04:31:32;26.80;;;15.00;;
77055;SDS011;67471;44.918;8.614;2023-12-07T04:34:36;30.48;;;15.75;;
77055;SDS011;67471;44.918;8.614;2023-12-07T04:37:39;29.65;;;15.52;;
77055;SDS011;67471;44.918;8.614;2023-12-07T04:40:43;26.65;;;14.70;;
77055;SDS011;67471;44.918;8.614;2023-12-07T04:43:47;26.48;;;14.57;;
77055;SDS011;67471;44.918;8.614;2023-12-07T04:46:51;26.17;;;16.17;;
77055;SDS011;67471;44.918;8.614;2023-12-07T04:49:55;30.23;;;15.80;;
77055;SDS011;67471;44.918;8.614;2023-12-07T04:52:58;23.33;;;14.60;;
77055;SDS011;67471;44.918;8.614;2023-12-07T04:56:02;26.80;;;14.27;;
77055;SDS011;67471;44.918;8.614;2023-12-07T04:59:07;28.52;;;15.77;;
77055;SDS011;67471;44.918;8.614;2023-12-07T05:02:13;30.15;;;15.70;;
77055;SDS011;67471;44.918;8.614;2023-12-07T05:05:17;28.35;;;15.75;;
77055;SDS011;67471;44.918;8.614;2023-12-07T05:08:21;28.20;;;15.73;;
77055;SDS011;67471;44.918;8.614;2023-12-07T05:11:25;28.02;;;16.13;;
77055;SDS011;67471;44.918;8.614;2023-12-07T05:14:28;30.30;;;15.55;;
77055;SDS011;67471;44.918;8.614;2023-12-07T05:17:34;25.85;;;15.25;;
77055;SDS011;67471;44.918;8.614;2023-12-07T05:20:38;25.00;;;14.80;;
77055;SDS011;67471;44.918;8.614;2023-12-07T05:23:42;22.95;;;13.32;;
77055;SDS011;67471;44.918;8.614;2023-12-07T05:26:46;25.60;;;14.43;;
77055;SDS011;67471;44.918;8.614;2023-12-07T05:29:50;27.50;;;14.82;;
77055;SDS011;67471;44.918;8.614;2023-12-07T05:32:53;22.33;;;15.00;;
77055;SDS011;67471;44.918;8.614;2023-12-07T05:35:57;24.83;;;14.32;;
77055;SDS011;67471;44.918;8.614;2023-12-07T05:39:02;26.85;;;14.18;;
77055;SDS011;67471;44.918;8.614;2023-12-07T05:42:06;27.95;;;15.30;;
77055;SDS011;67471;44.918;8.614;2023-12-07T05:45:10;26.30;;;14.98;;
77055;SDS011;67471;44.918;8.614;2023-12-07T05:48:13;28.15;;;14.82;;
77055;SDS011;67471;44.918;8.614;2023-12-07T05:51:17;25.35;;;13.65;;
77055;SDS011;67471;44.918;8.614;2023-12-07T05:54:21;24.40;;;14.00;;
77055;SDS011;67471;44.918;8.614;2023-12-07T05:57:27;24.02;;;14.63;;
77055;SDS011;67471;44.918;8.614;2023-12-07T06:00:31;26.45;;;15.18;;
77055;SDS011;67471;44.918;8.614;2023-12-07T06:03:35;27.23;;;15.77;;
77055;SDS011;67471;44.918;8.614;2023-12-07T06:06:39;32.30;;;15.63;;
77055;SDS011;67471;44.918;8.614;2023-12-07T06:09:43;22.85;;;13.35;;
77055;SDS011;67471;44.918;8.614;2023-12-07T06:12:47;25.27;;;14.90;;
77055;SDS011;67471;44.918;8.614;2023-12-07T06:15:50;22.65;;;14.52;;
77055;SDS011;67471;44.918;8.614;2023-12-07T06:18:54;25.63;;;13.68;;
77055;SDS011;67471;44.918;8.614;2023-12-07T06:21:58;28.85;;;14.65;;
77055;SDS011;67471;44.918;8.614;2023-12-07T06:25:02;26.70;;;14.57;;
77055;SDS011;67471;44.918;8.614;2023-12-07T06:28:05;24.67;;;13.88;;
77055;SDS011;67471;44.918;8.614;2023-12-07T06:31:11;30.27;;;14.10;;
77055;SDS011;67471;44.918;8.614;2023-12-07T06:34:15;27.08;;;14.68;;
77055;SDS011;67471;44.918;8.614;2023-12-07T06:37:19;25.42;;;15.15;;
77055;SDS011;67471;44.918;8.614;2023-12-07T06:40:23;23.75;;;14.80;;
77055;SDS011;67471;44.918;8.614;2023-12-07T06:43:27;27.40;;;15.13;;
77055;SDS011;67471;44.918;8.614;2023-12-07T06:46:31;24.35;;;14.75;;
77055;SDS011;67471;44.918;8.614;2023-12-07T06:49:35;27.42;;;15.15;;
77055;SDS011;67471;44.918;8.614;2023-12-07T06:52:39;28.63;;;16.33;;
77055;SDS011;67471;44.918;8.614;2023-12-07T06:55:44;27.63;;;16.42;;
77055;SDS011;67471;44.918;8.614;2023-12-07T06:58:47;26.92;;;16.67;;
77055;SDS011;67471;44.918;8.614;2023-12-07T07:01:51;27.40;;;14.50;;
77055;SDS011;67471;44.918;8.614;2023-12-07T07:04:55;31.10;;;15.70;;
77055;SDS011;67471;44.918;8.614;2023-12-07T07:07:59;22.80;;;14.10;;
77055;SDS011;67471;44.918;8.614;2023-12-07T07:11:08;27.02;;;14.45;;
77055;SDS011;67471;44.918;8.614;2023-12-07T07:14:15;30.17;;;16.10;;
77055;SDS011;67471;44.918;8.614;2023-12-07T07:17:19;25.35;;;15.32;;
77055;SDS011;67471;44.918;8.614;2023-12-07T07:20:23;27.48;;;15.82;;
77055;SDS011;67471;44.918;8.614;2023-12-07T07:23:27;25.45;;;14.35;;
77055;SDS011;67471;44.918;8.614;2023-12-07T07:26:31;24.02;;;14.52;;
77055;SDS011;67471;44.918;8.614;2023-12-07T07:29:34;28.35;;;16.67;;
77055;SDS011;67471;44.918;8.614;2023-12-07T07:32:38;27.45;;;15.63;;
77055;SDS011;67471;44.918;8.614;2023-12-07T07:35:42;24.85;;;16.05;;
77055;SDS011;67471;44.918;8.614;2023-12-07T07:38:46;26.63;;;16.17;;
77055;SDS011;67471;44.918;8.614;2023-12-07T07:41:51;25.10;;;15.20;;
77055;SDS011;67471;44.918;8.614;2023-12-07T07:44:55;21.50;;;14.75;;
77055;SDS011;67471;44.918;8.614;2023-12-07T07:47:59;27.23;;;16.45;;
77055;SDS011;67471;44.918;8.614;2023-12-07T07:51:03;22.25;;;14.20;;
77055;SDS011;67471;44.918;8.614;2023-12-07T07:54:07;21.35;;;14.57;;
77055;SDS011;67471;44.918;8.614;2023-12-07T07:57:12;19.15;;;13.82;;
77055;SDS011;67471;44.918;8.614;2023-12-07T08:00:15;24.75;;;14.88;;
77055;SDS011;67471;44.918;8.614;2023-12-07T08:03:21;19.40;;;13.55;;
77055;SDS011;67471;44.918;8.614;2023-12-07T08:06:25;20.67;;;13.90;;
77055;SDS011;67471;44.918;8.614;2023-12-07T08:09:28;19.27;;;14.07;;
77055;SDS011;67471;44.918;8.614;2023-12-07T08:12:32;20.42;;;13.98;;
77055;SDS011;67471;44.918;8.614;2023-12-07T08:15:36;16.67;;;12.65;;
77055;SDS011;67471;44.918;8.614;2023-12-07T08:18:40;18.77;;;13.43;;
77055;SDS011;67471;44.918;8.614;2023-12-07T08:21:44;20.08;;;12.38;;
77055;SDS011;67471;44.918;8.614;2023-12-07T08:24:48;15.77;;;12.05;;
77055;SDS011;67471;44.918;8.614;2023-12-07T08:27:51;19.80;;;12.45;;
77055;SDS011;67471;44.918;8.614;2023-12-07T08:30:55;16.63;;;12.10;;
77055;SDS011;67471;44.918;8.614;2023-12-07T08:33:59;16.77;;;11.98;;
77055;SDS011;67471;44.918;8.614;2023-12-07T08:37:03;18.33;;;12.73;;
77055;SDS011;67471;44.918;8.614;2023-12-07T08:40:07;16.80;;;12.15;;
77055;SDS011;67471;44.918;8.614;2023-12-07T08:43:14;16.27;;;13.40;;
77055;SDS011;67471;44.918;8.614;2023-12-07T08:46:18;18.50;;;12.77;;
77055;SDS011;67471;44.918;8.614;2023-12-07T08:49:22;15.57;;;11.70;;
77055;SDS011;67471;44.918;8.614;2023-12-07T08:52:26;17.13;;;12.73;;
77055;SDS011;67471;44.918;8.614;2023-12-07T08:55:30;17.38;;;12.90;;
77055;SDS011;67471;44.918;8.614;2023-12-07T08:58:34;18.88;;;12.00;;
77055;SDS011;67471;44.918;8.614;2023-12-07T09:01:38;15.02;;;10.82;;
77055;SDS011;67471;44.918;8.614;2023-12-07T09:04:42;16.48;;;11.88;;
77055;SDS011;67471;44.918;8.614;2023-12-07T09:07:45;17.30;;;12.38;;
77055;SDS011;67471;44.918;8.614;2023-12-07T09:10:49;17.85;;;12.85;;
77055;SDS011;67471;44.918;8.614;2023-12-07T09:13:54;15.68;;;12.95;;
77055;SDS011;67471;44.918;8.614;2023-12-07T09:16:57;16.63;;;12.35;;
77055;SDS011;67471;44.918;8.614;2023-12-07T09:20:01;15.13;;;11.18;;
77055;SDS011;67471;44.918;8.614;2023-12-07T09:23:07;16.52;;;11.95;;
77055;SDS011;67471;44.918;8.614;2023-12-07T09:26:10;18.05;;;12.00;;
77055;SDS011;67471;44.918;8.614;2023-12-07T09:29:14;15.18;;;11.20;;
77055;SDS011;67471;44.918;8.614;2023-12-07T09:32:18;15.45;;;12.02;;
77055;SDS011;67471;44.918;8.614;2023-12-07T09:35:22;17.98;;;12.40;;
77055;SDS011;67471;44.918;8.614;2023-12-07T09:38:26;18.10;;;11.35;;
77055;SDS011;67471;44.918;8.614;2023-12-07T09:41:29;18.40;;;12.75;;
77055;SDS011;67471;44.918;8.614;2023-12-07T09:44:33;23.30;;;15.13;;
77055;SDS011;67471;44.918;8.614;2023-12-07T09:47:37;19.98;;;13.23;;
77055;SDS011;67471;44.918;8.614;2023-12-07T09:50:42;20.52;;;13.32;;
77055;SDS011;67471;44.918;8.614;2023-12-07T09:53:45;18.08;;;13.38;;
77055;SDS011;67471;44.918;8.614;2023-12-07T09:56:52;17.25;;;13.15;;
77055;SDS011;67471;44.918;8.614;2023-12-07T09:59:58;21.80;;;15.35;;
77055;SDS011;67471;44.918;8.614;2023-12-07T10:03:02;28.25;;;17.27;;
77055;SDS011;67471;44.918;8.614;2023-12-07T10:06:06;24.52;;;16.02;;
77055;SDS011;67471;44.918;8.614;2023-12-07T10:09:10;26.25;;;16.00;;
77055;SDS011;67471;44.918;8.614;2023-12-07T10:12:14;19.50;;;13.40;;
77055;SDS011;67471;44.918;8.614;2023-12-07T10:15:19;21.83;;;14.52;;
77055;SDS011;67471;44.918;8.614;2023-12-07T10:18:25;24.83;;;15.73;;
77055;SDS011;67471;44.918;8.614;2023-12-07T10:21:32;29.65;;;16.55;;
77055;SDS011;67471;44.918;8.614;2023-12-07T10:24:36;23.95;;;15.00;;
77055;SDS011;67471;44.918;8.614;2023-12-07T10:27:41;22.52;;;14.80;;
77055;SDS011;67471;44.918;8.614;2023-12-07T10:30:45;21.30;;;13.82;;
77055;SDS011;67471;44.918;8.614;2023-12-07T10:33:49;21.13;;;14.63;;
77055;SDS011;67471;44.918;8.614;2023-12-07T10:36:53;23.13;;;14.75;;
77055;SDS011;67471;44.918;8.614;2023-12-07T10:39:59;17.02;;;12.70;;
77055;SDS011;67471;44.918;8.614;2023-12-07T10:43:06;17.17;;;12.02;;
77055;SDS011;67471;44.918;8.614;2023-12-07T10:46:11;19.75;;;13.35;;
77055;SDS011;67471;44.918;8.614;2023-12-07T10:49:19;23.00;;;13.70;;
77055;SDS011;67471;44.918;8.614;2023-12-07T10:52:26;20.23;;;12.57;;
77055;SDS011;67471;44.918;8.614;2023-12-07T10:56:00;19.52;;;12.88;;
77055;SDS011;67471;44.918;8.614;2023-12-07T10:59:03;18.17;;;12.20;;
77055;SDS011;67471;44.918;8.614;2023-12-07T11:02:07;18.40;;;11.98;;
77055;SDS011;67471;44.918;8.614;2023-12-07T11:05:15;18.20;;;12.90;;
77055;SDS011;67471;44.918;8.614;2023-12-07T11:14:45;15.60;;;10.93;;
77055;SDS011;67471;44.918;8.614;2023-12-07T11:17:54;18.05;;;11.75;;
77055;SDS011;67471;44.918;8.614;2023-12-07T11:20:58;19.02;;;12.27;;
77055;SDS011;67471;44.918;8.614;2023-12-07T11:24:03;16.75;;;11.95;;
77055;SDS011;67471;44.918;8.614;2023-12-07T11:27:07;19.60;;;12.18;;
77055;SDS011;67471;44.918;8.614;2023-12-07T11:30:12;19.27;;;12.52;;
77055;SDS011;67471;44.918;8.614;2023-12-07T11:33:16;18.23;;;12.18;;
77055;SDS011;67471;44.918;8.614;2023-12-07T11:36:20;14.77;;;11.13;;
77055;SDS011;67471;44.918;8.614;2023-12-07T11:39:24;16.90;;;11.93;;
77055;SDS011;67471;44.918;8.614;2023-12-07T11:42:29;22.17;;;12.85;;
77055;SDS011;67471;44.918;8.614;2023-12-07T11:45:49;18.52;;;13.00;;
77055;SDS011;67471;44.918;8.614;2023-12-07T11:48:52;20.83;;;14.10;;
77055;SDS011;67471;44.918;8.614;2023-12-07T11:51:58;20.65;;;13.52;;
77055;SDS011;67471;44.918;8.614;2023-12-07T11:55:02;21.33;;;14.65;;
77055;SDS011;67471;44.918;8.614;2023-12-07T11:58:06;22.42;;;14.93;;
77055;SDS011;67471;44.918;8.614;2023-12-07T12:01:16;19.95;;;13.57;;
77055;SDS011;67471;44.918;8.614;2023-12-07T12:04:23;25.40;;;14.68;;
77055;SDS011;67471;44.918;8.614;2023-12-07T12:07:27;21.52;;;14.00;;
77055;SDS011;67471;44.918;8.614;2023-12-07T12:10:31;22.08;;;15.55;;
77055;SDS011;67471;44.918;8.614;2023-12-07T12:13:35;24.77;;;14.38;;
77055;SDS011;67471;44.918;8.614;2023-12-07T12:16:39;23.67;;;14.75;;
77055;SDS011;67471;44.918;8.614;2023-12-07T12:19:43;20.48;;;14.60;;
77055;SDS011;67471;44.918;8.614;2023-12-07T12:22:47;22.08;;;14.63;;
77055;SDS011;67471;44.918;8.614;2023-12-07T12:25:51;20.17;;;14.25;;
77055;SDS011;67471;44.918;8.614;2023-12-07T12:28:55;21.30;;;13.13;;
77055;SDS011;67471;44.918;8.614;2023-12-07T12:31:59;18.35;;;13.88;;
77055;SDS011;67471;44.918;8.614;2023-12-07T12:35:03;20.88;;;14.65;;
77055;SDS011;67471;44.918;8.614;2023-12-07T12:38:10;22.40;;;15.90;;
77055;SDS011;67471;44.918;8.614;2023-12-07T12:41:17;19.92;;;13.50;;
77055;SDS011;67471;44.918;8.614;2023-12-07T12:44:25;19.10;;;13.82;;
77055;SDS011;67471;44.918;8.614;2023-12-07T12:47:28;25.63;;;13.63;;
77055;SDS011;67471;44.918;8.614;2023-12-07T12:50:41;18.83;;;13.35;;
77055;SDS011;67471;44.918;8.614;2023-12-07T12:53:45;20.73;;;13.95;;
77055;SDS011;67471;44.918;8.614;2023-12-07T12:56:52;20.15;;;14.02;;
77055;SDS011;67471;44.918;8.614;2023-12-07T12:59:56;21.33;;;14.27;;
77055;SDS011;67471;44.918;8.614;2023-12-07T13:03:00;18.48;;;12.75;;
77055;SDS011;67471;44.918;8.614;2023-12-07T13:06:06;22.70;;;13.70;;
77055;SDS011;67471;44.918;8.614;2023-12-07T13:09:10;18.98;;;12.30;;
77055;SDS011;67471;44.918;8.614;2023-12-07T13:12:14;17.17;;;11.82;;
77055;SDS011;67471;44.918;8.614;2023-12-07T13:15:17;16.67;;;11.88;;
77055;SDS011;67471;44.918;8.614;2023-12-07T13:18:22;16.75;;;11.73;;
77055;SDS011;67471;44.918;8.614;2023-12-07T13:21:26;16.50;;;10.95;;
77055;SDS011;67471;44.918;8.614;2023-12-07T13:24:29;19.15;;;12.63;;
77055;SDS011;67471;44.918;8.614;2023-12-07T13:27:33;15.18;;;11.13;;
77055;SDS011;67471;44.918;8.614;2023-12-07T13:30:38;18.10;;;11.55;;
77055;SDS011;67471;44.918;8.614;2023-12-07T13:33:42;16.80;;;10.90;;
77055;SDS011;67471;44.918;8.614;2023-12-07T13:36:47;17.25;;;11.07;;
77055;SDS011;67471;44.918;8.614;2023-12-07T13:39:51;16.30;;;11.40;;
77055;SDS011;67471;44.918;8.614;2023-12-07T13:43:01;16.33;;;11.43;;
77055;SDS011;67471;44.918;8.614;2023-12-07T13:46:04;16.13;;;11.13;;
77055;SDS011;67471;44.918;8.614;2023-12-07T13:49:08;18.70;;;12.05;;
77055;SDS011;67471;44.918;8.614;2023-12-07T13:52:12;17.00;;;11.80;;
77055;SDS011;67471;44.918;8.614;2023-12-07T13:55:19;18.92;;;12.23;;
77055;SDS011;67471;44.918;8.614;2023-12-07T13:58:23;19.73;;;11.93;;
77055;SDS011;67471;44.918;8.614;2023-12-07T14:01:27;16.40;;;11.68;;
77055;SDS011;67471;44.918;8.614;2023-12-07T14:04:31;14.15;;;11.05;;
77055;SDS011;67471;44.918;8.614;2023-12-07T14:07:35;17.88;;;11.45;;
77055;SDS011;67471;44.918;8.614;2023-12-07T14:10:39;18.95;;;11.60;;
77055;SDS011;67471;44.918;8.614;2023-12-07T14:13:43;19.40;;;11.55;;
77055;SDS011;67471;44.918;8.614;2023-12-07T14:16:49;17.88;;;11.27;;
77055;SDS011;67471;44.918;8.614;2023-12-07T14:19:53;17.77;;;11.52;;
77055;SDS011;67471;44.918;8.614;2023-12-07T14:22:57;19.13;;;10.60;;
77055;SDS011;67471;44.918;8.614;2023-12-07T14:26:07;13.60;;;9.95;;
77055;SDS011;67471;44.918;8.614;2023-12-07T14:29:11;15.48;;;10.18;;
77055;SDS011;67471;44.918;8.614;2023-12-07T14:32:18;14.85;;;10.10;;
77055;SDS011;67471;44.918;8.614;2023-12-07T14:35:22;17.20;;;10.90;;
77055;SDS011;67471;44.918;8.614;2023-12-07T14:38:25;14.63;;;10.15;;
77055;SDS011;67471;44.918;8.614;2023-12-07T14:41:29;16.50;;;11.18;;
77055;SDS011;67471;44.918;8.614;2023-12-07T14:44:33;14.63;;;10.15;;
77055;SDS011;67471;44.918;8.614;2023-12-07T14:47:37;19.98;;;11.20;;
77055;SDS011;67471;44.918;8.614;2023-12-07T14:50:43;19.10;;;11.15;;
77055;SDS011;67471;44.918;8.614;2023-12-07T14:53:47;17.95;;;10.88;;
77055;SDS011;67471;44.918;8.614;2023-12-07T14:56:50;16.98;;;10.75;;
77055;SDS011;67471;44.918;8.614;2023-12-07T14:59:54;19.33;;;12.35;;
77055;SDS011;67471;44.918;8.614;2023-12-07T15:03:01;16.67;;;12.13;;
77055;SDS011;67471;44.918;8.614;2023-12-07T15:06:05;15.63;;;10.82;;
77055;SDS011;67471;44.918;8.614;2023-12-07T15:09:09;16.63;;;11.25;;
77055;SDS011;67471;44.918;8.614;2023-12-07T15:12:13;19.77;;;10.95;;
77055;SDS011;67471;44.918;8.614;2023-12-07T15:15:17;16.50;;;11.23;;
77055;SDS011;67471;44.918;8.614;2023-12-07T15:18:21;16.80;;;11.48;;
77055;SDS011;67471;44.918;8.614;2023-12-07T15:21:25;18.02;;;11.52;;
77055;SDS011;67471;44.918;8.614;2023-12-07T15:24:30;17.65;;;12.02;;
77055;SDS011;67471;44.918;8.614;2023-12-07T15:27:34;15.40;;;10.50;;
77055;SDS011;67471;44.918;8.614;2023-12-07T15:30:38;21.05;;;11.20;;
77055;SDS011;67471;44.918;8.614;2023-12-07T15:33:42;20.05;;;10.30;;
77055;SDS011;67471;44.918;8.614;2023-12-07T15:36:46;15.50;;;9.75;;
77055;SDS011;67471;44.918;8.614;2023-12-07T15:39:50;15.32;;;9.50;;
77055;SDS011;67471;44.918;8.614;2023-12-07T15:42:57;19.67;;;9.68;;
77055;SDS011;67471;44.918;8.614;2023-12-07T15:46:01;15.25;;;9.73;;
77055;SDS011;67471;44.918;8.614;2023-12-07T15:49:06;16.05;;;9.25;;
77055;SDS011;67471;44.918;8.614;2023-12-07T15:52:10;17.77;;;9.98;;
77055;SDS011;67471;44.918;8.614;2023-12-07T15:55:13;12.60;;;9.32;;
77055;SDS011;67471;44.918;8.614;2023-12-07T15:58:20;17.55;;;10.30;;
77055;SDS011;67471;44.918;8.614;2023-12-07T16:01:23;18.25;;;11.40;;
77055;SDS011;67471;44.918;8.614;2023-12-07T16:04:28;15.55;;;10.25;;
77055;SDS011;67471;44.918;8.614;2023-12-07T16:07:33;20.08;;;12.18;;
77055;SDS011;67471;44.918;8.614;2023-12-07T16:10:39;22.15;;;12.32;;
77055;SDS011;67471;44.918;8.614;2023-12-07T16:13:42;21.95;;;13.48;;
77055;SDS011;67471;44.918;8.614;2023-12-07T16:16:46;24.13;;;13.68;;
77055;SDS011;67471;44.918;8.614;2023-12-07T16:19:50;29.23;;;15.43;;
77055;SDS011;67471;44.918;8.614;2023-12-07T16:22:54;27.10;;;13.82;;
77055;SDS011;67471;44.918;8.614;2023-12-07T16:25:57;41.67;;;22.80;;
77055;SDS011;67471;44.918;8.614;2023-12-07T16:29:01;32.60;;;16.90;;
77055;SDS011;67471;44.918;8.614;2023-12-07T16:32:05;27.70;;;16.23;;
77055;SDS011;67471;44.918;8.614;2023-12-07T16:35:10;39.53;;;18.23;;
77055;SDS011;67471;44.918;8.614;2023-12-07T16:38:13;32.13;;;17.38;;
77055;SDS011;67471;44.918;8.614;2023-12-07T16:41:17;35.80;;;17.10;;
77055;SDS011;67471;44.918;8.614;2023-12-07T16:44:21;29.60;;;17.20;;
77055;SDS011;67471;44.918;8.614;2023-12-07T16:47:25;26.02;;;15.23;;
77055;SDS011;67471;44.918;8.614;2023-12-07T16:50:30;28.90;;;16.40;;
77055;SDS011;67471;44.918;8.614;2023-12-07T16:53:34;27.15;;;16.02;;
77055;SDS011;67471;44.918;8.614;2023-12-07T16:56:38;30.25;;;13.93;;
77055;SDS011;67471;44.918;8.614;2023-12-07T16:59:42;32.28;;;15.13;;
77055;SDS011;67471;44.918;8.614;2023-12-07T17:02:46;26.73;;;14.55;;
77055;SDS011;67471;44.918;8.614;2023-12-07T17:05:49;30.20;;;16.48;;
77055;SDS011;67471;44.918;8.614;2023-12-07T17:08:53;31.27;;;17.30;;
77055;SDS011;67471;44.918;8.614;2023-12-07T17:11:59;32.50;;;17.80;;
77055;SDS011;67471;44.918;8.614;2023-12-07T17:15:03;31.73;;;17.00;;
77055;SDS011;67471;44.918;8.614;2023-12-07T17:18:07;35.80;;;17.45;;
77055;SDS011;67471;44.918;8.614;2023-12-07T17:21:12;31.95;;;17.23;;
77055;SDS011;67471;44.918;8.614;2023-12-07T17:24:16;28.45;;;16.45;;
77055;SDS011;67471;44.918;8.614;2023-12-07T17:27:21;27.23;;;16.73;;
77055;SDS011;67471;44.918;8.614;2023-12-07T17:30:25;34.17;;;19.45;;
77055;SDS011;67471;44.918;8.614;2023-12-07T17:33:29;36.95;;;19.98;;
77055;SDS011;67471;44.918;8.614;2023-12-07T17:36:33;34.42;;;19.63;;
77055;SDS011;67471;44.918;8.614;2023-12-07T17:39:37;31.83;;;18.27;;
77055;SDS011;67471;44.918;8.614;2023-12-07T17:42:40;32.40;;;17.92;;
77055;SDS011;67471;44.918;8.614;2023-12-07T17:45:44;32.88;;;19.00;;
77055;SDS011;67471;44.918;8.614;2023-12-07T17:48:48;31.33;;;17.90;;
77055;SDS011;67471;44.918;8.614;2023-12-07T17:51:54;29.33;;;17.33;;
77055;SDS011;67471;44.918;8.614;2023-12-07T17:54:57;33.03;;;19.17;;
77055;SDS011;67471;44.918;8.614;2023-12-07T17:58:01;34.03;;;18.33;;
77055;SDS011;67471;44.918;8.614;2023-12-07T18:01:05;34.55;;;18.25;;
77055;SDS011;67471;44.918;8.614;2023-12-07T18:04:09;44.72;;;19.73;;